Time;durP1;ratioP1;P1;durP2;ratioP2;P2;SDS_P1;SDS_P2;PMS_P1;PMS_P2;Temp;Humidity;BMP_temperature;BMP_pressure;BME280_temperature;BME280_humidity;BME280_pressure;Samples;Min_cycle;Max_cycle;Signal;HPM_P1;HPM_P2
2022/03/13 00:02:09;;;;;;;;;;;;;;;3.49;47.46;92869.09;2037452;70;20056;-74
2022/03/13 00:04:38;;;;;;;;;;;;;;;3.42;47.46;92869.84;2037050;70;20162;-74
2022/03/13 00:07:15;;;;;;;;;;;;;;;3.44;46.28;92867.25;2040450;70;20443;-73
2022/03/13 00:09:40;;;;;;;;;;;;;;;3.45;47.04;92868.72;2040764;70;20071;-72
2022/03/13 00:12:08;;;;;;;;;;;;;;;3.89;43.77;92869.13;2040731;70;20051;-72
2022/03/13 00:14:34;;;;;;;;;;;;;;;3.62;46.35;92860.50;2040381;70;20043;-74
2022/03/13 00:17:00;;;;;;;;;;;;;;;3.67;45.73;92861.63;2041001;70;20187;-73
2022/03/13 00:19:33;;;;;;;;;;;;;;;3.77;45.51;92860.44;2040511;70;20131;-73
2022/03/13 00:21:58;;;;;;;;;;;;;;;3.72;45.49;92864.19;2041216;70;20051;-72
2022/03/13 00:24:24;;;;;;;;;;;;;;;3.46;46.78;92864.63;2041097;70;20063;-72
2022/03/13 00:26:51;;;;;;;;;;;;;;;3.82;44.39;92867.13;2041171;70;20176;-73
2022/03/13 00:29:17;;;;;;;;;;;;;;;3.54;46.72;92862.56;2040317;70;20150;-73
2022/03/13 00:31:42;;;;;;;;;;;;;;;3.80;45.24;92864.13;2041182;70;20488;-73
2022/03/13 00:34:08;;;;;;;;;;;;;;;3.62;46.29;92870.88;2039858;70;20088;-72
2022/03/13 00:36:34;;;;;;;;;;;;;;;3.51;46.18;92863.69;2037170;70;20051;-74
2022/03/13 00:39:00;;;;;;;;;;;;;;;3.41;46.16;92866.31;2039251;70;20565;-74
2022/03/13 00:41:26;;;;;;;;;;;;;;;3.35;46.82;92865.03;2036782;70;20091;-73
2022/03/13 00:43:51;;;;;;;;;;;;;;;3.45;46.85;92861.13;2037253;70;20132;-74
2022/03/13 00:46:17;;;;;;;;;;;;;;;3.88;45.18;92850.19;2037467;70;20481;-73
2022/03/13 00:48:42;;;;;;;;;;;;;;;3.68;45.44;92855.47;2037361;70;20139;-73
2022/03/13 00:51:08;;;;;;;;;;;;;;;3.77;44.45;92854.16;2036665;70;20044;-72
2022/03/13 00:53:34;;;;;;;;;;;;;;;3.38;46.06;92856.28;2037418;70;20512;-72
2022/03/13 00:56:00;;;;;;;;;;;;;;;3.55;45.04;92856.44;2037528;70;20068;-72
2022/03/13 00:58:25;;;;;;;;;;;;;;;3.51;45.94;92858.88;2037606;70;20091;-73
2022/03/13 01:00:52;;;;;;;;;;;;;;;3.46;46.14;92859.81;2038735;70;20115;-72
2022/03/13 01:03:45;;;;;;;;;;;;;;;3.73;43.76;92848.22;2040937;70;20055;-73
2022/03/13 01:06:11;;;;;;;;;;;;;;;3.36;46.07;92856.13;2040977;70;20107;-72
2022/03/13 01:08:40;;;;;;;;;;;;;;;3.29;45.85;92857.63;2040780;70;20063;-73
2022/03/13 01:11:08;;;;;;;;;;;;;;;3.43;45.95;92857.41;2041072;70;20047;-73
2022/03/13 01:13:35;;;;;;;;;;;;;;;3.21;46.26;92851.34;2040383;70;20048;-72
2022/03/13 01:16:12;;;;;;;;;;;;;;;3.41;45.57;92855.19;2041033;70;20094;-72
2022/03/13 01:18:40;;;;;;;;;;;;;;;3.69;43.45;92856.94;2041499;70;20054;-73
2022/03/13 01:21:06;;;;;;;;;;;;;;;3.48;45.54;92846.09;2041144;70;20052;-72
2022/03/13 01:23:33;;;;;;;;;;;;;;;3.47;44.31;92850.16;2041803;70;20052;-72
2022/03/13 01:26:17;;;;;;;;;;;;;;;3.47;44.76;92843.84;2041502;70;20619;-72
2022/03/13 01:28:42;;;;;;;;;;;;;;;3.21;46.48;92837.44;2041604;70;20039;-73
2022/03/13 01:31:08;;;;;;;;;;;;;;;3.11;46.82;92839.28;2043867;70;20412;-72
2022/03/13 01:33:34;;;;;;;;;;;;;;;3.08;46.31;92834.13;2041582;70;20484;-73
2022/03/13 01:35:59;;;;;;;;;;;;;;;3.20;45.52;92847.06;2041658;70;20071;-73
2022/03/13 01:38:31;;;;;;;;;;;;;;;3.33;45.64;92845.38;2041454;70;20074;-72
2022/03/13 01:40:57;;;;;;;;;;;;;;;3.67;44.67;92834.50;2041748;70;20059;-72
2022/03/13 01:43:23;;;;;;;;;;;;;;;3.64;44.32;92835.63;2041637;70;20051;-72
2022/03/13 01:45:49;;;;;;;;;;;;;;;3.55;43.98;92841.78;2041497;70;20047;-71
2022/03/13 01:48:14;;;;;;;;;;;;;;;3.43;44.89;92830.31;2041569;70;20051;-72
2022/03/13 01:50:40;;;;;;;;;;;;;;;2.45;48.88;92840.25;2040567;70;20079;-73
2022/03/13 01:53:09;;;;;;;;;;;;;;;2.93;47.78;92843.22;2041545;70;20051;-72
2022/03/13 01:55:34;;;;;;;;;;;;;;;2.99;46.11;92841.72;2040726;70;20501;-72
2022/03/13 01:57:59;;;;;;;;;;;;;;;3.14;46.29;92837.44;2041603;70;20067;-72
2022/03/13 02:00:26;;;;;;;;;;;;;;;3.02;46.24;92837.84;2041427;70;20047;-73
2022/03/13 02:02:52;;;;;;;;;;;;;;;2.94;46.34;92839.16;2040992;70;20048;-73
2022/03/13 02:05:32;;;;;;;;;;;;;;;3.01;45.53;92832.81;2040793;70;20051;-73
2022/03/13 02:07:58;;;;;;;;;;;;;;;3.05;46.00;92835.97;2041604;70;20468;-73
2022/03/13 02:10:25;;;;;;;;;;;;;;;2.89;45.95;92838.03;2041019;70;20480;-73
2022/03/13 02:12:50;;;;;;;;;;;;;;;2.99;46.53;92841.00;2041414;70;20170;-73
2022/03/13 02:15:15;;;;;;;;;;;;;;;2.75;47.54;92840.28;2041490;70;20135;-73
2022/03/13 02:17:41;;;;;;;;;;;;;;;2.75;47.65;92837.50;2041647;70;20166;-73
2022/03/13 02:20:12;;;;;;;;;;;;;;;2.78;46.90;92836.38;2041474;70;20099;-73
2022/03/13 02:22:38;;;;;;;;;;;;;;;2.67;48.03;92830.47;2041310;70;20048;-73
2022/03/13 02:25:04;;;;;;;;;;;;;;;2.62;48.27;92831.38;2041680;70;20071;-72
2022/03/13 02:27:32;;;;;;;;;;;;;;;2.67;48.02;92828.41;2041394;70;20614;-73
2022/03/13 02:29:57;;;;;;;;;;;;;;;2.65;48.21;92830.25;2041514;70;20139;-73
2022/03/13 02:32:23;;;;;;;;;;;;;;;2.74;46.67;92836.00;2041457;70;20051;-73
2022/03/13 02:34:49;;;;;;;;;;;;;;;2.87;46.63;92835.06;2040922;70;20044;-72
2022/03/13 02:37:33;;;;;;;;;;;;;;;2.70;47.50;92832.09;2041432;70;20051;-73
2022/03/13 02:40:00;;;;;;;;;;;;;;;2.81;47.12;92837.31;2041386;70;20142;-72
2022/03/13 02:42:25;;;;;;;;;;;;;;;2.73;47.50;92840.06;2041430;70;20048;-72
2022/03/13 02:44:51;;;;;;;;;;;;;;;2.75;46.06;92843.06;2041167;70;20055;-74
2022/03/13 02:47:16;;;;;;;;;;;;;;;2.70;46.69;92837.66;2041390;70;20130;-73
2022/03/13 02:49:42;;;;;;;;;;;;;;;2.69;46.69;92841.75;2041314;70;20130;-73
2022/03/13 02:52:10;;;;;;;;;;;;;;;2.49;47.04;92838.59;2040260;70;20424;-73
2022/03/13 02:54:35;;;;;;;;;;;;;;;2.52;47.50;92845.06;2041508;70;20051;-74
2022/03/13 02:57:01;;;;;;;;;;;;;;;2.48;47.87;92850.28;2041564;70;20443;-74
2022/03/13 02:59:27;;;;;;;;;;;;;;;2.59;47.41;92847.13;2041183;70;20151;-73
2022/03/13 03:01:53;;;;;;;;;;;;;;;2.35;48.12;92845.63;2043683;70;20139;-73
2022/03/13 03:04:21;;;;;;;;;;;;;;;2.49;46.78;92848.97;2040936;70;20151;-73
2022/03/13 03:06:49;;;;;;;;;;;;;;;2.64;46.41;92848.97;2041442;70;20048;-73
2022/03/13 03:09:17;;;;;;;;;;;;;;;2.40;48.43;92847.50;2041347;70;20054;-73
2022/03/13 03:11:43;;;;;;;;;;;;;;;2.36;48.21;92849.88;2041426;70;20078;-72
2022/03/13 03:14:11;;;;;;;;;;;;;;;2.26;49.07;92848.97;2040761;70;20069;-74
2022/03/13 03:16:38;;;;;;;;;;;;;;;2.24;49.06;92848.75;2041287;70;20527;-74
2022/03/13 03:19:03;;;;;;;;;;;;;;;2.44;47.43;92853.41;2040644;70;20051;-73
2022/03/13 03:21:30;;;;;;;;;;;;;;;2.31;48.74;92850.81;2040918;70;20471;-73
2022/03/13 03:23:56;;;;;;;;;;;;;;;2.37;48.85;92850.63;2041279;70;20040;-73
2022/03/13 03:26:24;;;;;;;;;;;;;;;2.11;49.57;92851.69;2041381;70;20050;-73
2022/03/13 03:28:49;;;;;;;;;;;;;;;2.19;48.65;92846.91;2041279;70;20127;-73
2022/03/13 03:31:15;;;;;;;;;;;;;;;2.33;47.58;92853.75;2040858;70;20149;-74
2022/03/13 03:33:40;;;;;;;;;;;;;;;2.20;48.53;92851.91;2043606;70;20075;-73
2022/03/13 03:36:06;;;;;;;;;;;;;;;2.40;46.06;92853.03;2041381;70;20743;-74
2022/03/13 03:38:31;;;;;;;;;;;;;;;2.31;48.13;92850.81;2040714;70;20472;-74
2022/03/13 03:40:57;;;;;;;;;;;;;;;2.42;47.43;92849.69;2040446;70;20050;-73
2022/03/13 03:43:22;;;;;;;;;;;;;;;2.41;47.19;92856.56;2041352;70;20154;-73
2022/03/13 03:45:48;;;;;;;;;;;;;;;2.50;46.09;92853.22;2041275;70;20060;-72
2022/03/13 03:48:13;;;;;;;;;;;;;;;2.31;47.92;92861.91;2041375;70;20048;-73
2022/03/13 03:50:39;;;;;;;;;;;;;;;2.00;48.28;92867.41;2041220;70;20044;-73
2022/03/13 03:53:05;;;;;;;;;;;;;;;2.29;47.48;92865.25;2041331;70;20445;-73
2022/03/13 03:55:32;;;;;;;;;;;;;;;2.31;47.73;92867.47;2040777;70;20047;-73
2022/03/13 03:57:57;;;;;;;;;;;;;;;2.32;47.65;92865.44;2041283;70;20110;-73
2022/03/13 04:00:24;;;;;;;;;;;;;;;2.25;47.35;92869.69;2041200;70;20469;-73
2022/03/13 04:02:50;;;;;;;;;;;;;;;2.12;48.62;92878.19;2040482;70;20069;-74
2022/03/13 04:05:17;;;;;;;;;;;;;;;2.20;48.67;92874.13;2041311;70;20044;-73
2022/03/13 04:07:42;;;;;;;;;;;;;;;2.16;47.75;92873.03;2041262;70;20051;-73
2022/03/13 04:10:08;;;;;;;;;;;;;;;2.15;47.25;92868.72;2043451;70;20052;-73
2022/03/13 04:12:34;;;;;;;;;;;;;;;2.29;47.33;92867.28;2041319;70;20147;-74
2022/03/13 04:15:01;;;;;;;;;;;;;;;2.21;47.47;92870.06;2041201;70;20048;-74
2022/03/13 04:17:27;;;;;;;;;;;;;;;2.17;48.11;92866.16;2041188;70;20524;-74
2022/03/13 04:19:52;;;;;;;;;;;;;;;2.28;46.88;92868.56;2040451;70;20087;-73
2022/03/13 04:22:18;;;;;;;;;;;;;;;2.13;47.94;92855.41;2041246;70;20043;-74
2022/03/13 04:24:43;;;;;;;;;;;;;;;2.37;46.84;92856.19;2043339;70;20055;-74
2022/03/13 04:27:09;;;;;;;;;;;;;;;2.29;47.21;92859.72;2041159;70;20504;-74
2022/03/13 04:29:35;;;;;;;;;;;;;;;1.93;48.13;92865.38;2041154;70;20040;-73
2022/03/13 04:32:05;;;;;;;;;;;;;;;2.17;46.09;92864.13;2041209;70;20059;-73
2022/03/13 04:34:31;;;;;;;;;;;;;;;2.17;47.19;92855.78;2043334;70;20170;-73
2022/03/13 04:36:59;;;;;;;;;;;;;;;2.02;48.27;92866.88;2040964;70;20039;-73
2022/03/13 04:39:24;;;;;;;;;;;;;;;2.03;47.46;92869.09;2040922;70;20083;-73
2022/03/13 04:41:49;;;;;;;;;;;;;;;1.96;48.13;92869.78;2040989;70;20110;-73
2022/03/13 04:44:17;;;;;;;;;;;;;;;1.87;48.38;92867.53;2040801;70;20051;-73
2022/03/13 04:46:43;;;;;;;;;;;;;;;1.96;47.66;92867.03;2040921;70;20135;-73
2022/03/13 04:49:08;;;;;;;;;;;;;;;1.97;48.02;92860.19;2041158;70;20147;-74
2022/03/13 04:51:34;;;;;;;;;;;;;;;1.91;48.13;92862.38;2041092;70;20055;-74
2022/03/13 04:54:00;;;;;;;;;;;;;;;1.87;48.58;92861.25;2041100;70;20570;-74
2022/03/13 04:56:26;;;;;;;;;;;;;;;1.81;48.13;92858.66;2040993;70;20107;-74
2022/03/13 04:58:51;;;;;;;;;;;;;;;2.03;46.45;92869.09;2040896;70;20091;-73
2022/03/13 05:01:19;;;;;;;;;;;;;;;2.03;47.11;92857.25;2041020;70;20087;-73
2022/03/13 05:03:44;;;;;;;;;;;;;;;1.91;48.07;92856.81;2041078;70;20064;-73
2022/03/13 05:06:11;;;;;;;;;;;;;;;2.14;45.56;92853.38;2040965;70;20528;-74
2022/03/13 05:08:37;;;;;;;;;;;;;;;1.94;47.39;92855.75;2040939;70;20052;-73
2022/03/13 05:11:07;;;;;;;;;;;;;;;2.00;47.85;92856.28;2041004;70;20040;-74
2022/03/13 05:13:34;;;;;;;;;;;;;;;2.14;46.88;92851.34;2040929;70;20052;-74
2022/03/13 05:16:00;;;;;;;;;;;;;;;2.08;46.59;92845.22;2040262;70;20047;-73
2022/03/13 05:18:26;;;;;;;;;;;;;;;2.03;46.59;92854.47;2040845;70;20464;-73
2022/03/13 05:20:51;;;;;;;;;;;;;;;2.23;45.66;92848.00;2040789;70;20139;-74
2022/03/13 05:23:17;;;;;;;;;;;;;;;2.02;46.83;92850.94;2041286;70;20055;-74
2022/03/13 05:25:42;;;;;;;;;;;;;;;2.15;46.24;92852.06;2043217;70;20055;-73
2022/03/13 05:28:09;;;;;;;;;;;;;;;2.08;46.96;92853.56;2040943;70;20068;-73
2022/03/13 05:30:35;;;;;;;;;;;;;;;1.85;47.57;92850.72;2040998;70;20047;-73
2022/03/13 05:33:01;;;;;;;;;;;;;;;2.02;48.13;92853.00;2041101;70;20664;-73
2022/03/13 05:35:27;;;;;;;;;;;;;;;1.96;48.47;92852.41;2040924;70;20147;-73
2022/03/13 05:37:52;;;;;;;;;;;;;;;1.96;47.95;92846.84;2041139;70;20084;-73
2022/03/13 05:40:20;;;;;;;;;;;;;;;1.93;47.68;92845.94;2043265;70;20192;-73
2022/03/13 05:42:46;;;;;;;;;;;;;;;2.06;46.65;92849.81;2041084;70;20115;-73
2022/03/13 05:45:15;;;;;;;;;;;;;;;1.62;48.89;92850.63;2040865;70;20044;-73
2022/03/13 05:47:47;;;;;;;;;;;;;;;1.84;48.01;92857.56;2040412;70;20521;-73
2022/03/13 05:50:15;;;;;;;;;;;;;;;1.80;48.26;92867.53;2040941;70;20058;-73
2022/03/13 05:52:41;;;;;;;;;;;;;;;1.73;49.00;92855.09;2040816;70;20078;-74
2022/03/13 05:55:07;;;;;;;;;;;;;;;1.58;49.53;92852.28;2040742;70;20063;-73
2022/03/13 05:57:34;;;;;;;;;;;;;;;1.65;48.79;92859.88;2040899;70;20067;-74
2022/03/13 05:59:59;;;;;;;;;;;;;;;1.76;49.20;92859.56;2040691;70;20063;-73
2022/03/13 06:02:25;;;;;;;;;;;;;;;1.78;48.10;92860.47;2040935;70;20401;-72
2022/03/13 06:04:52;;;;;;;;;;;;;;;1.91;46.73;92859.59;2041313;70;20592;-72
2022/03/13 06:07:19;;;;;;;;;;;;;;;1.90;47.84;92851.84;2043363;70;20178;-72
2022/03/13 06:09:44;;;;;;;;;;;;;;;1.77;49.32;92863.81;2041431;70;20147;-72
2022/03/13 06:12:10;;;;;;;;;;;;;;;1.74;49.11;92862.13;2041271;70;20622;-72
2022/03/13 06:14:35;;;;;;;;;;;;;;;1.89;47.65;92862.19;2040877;70;20568;-72
2022/03/13 06:17:01;;;;;;;;;;;;;;;1.89;47.46;92867.03;2041381;70;20052;-73
2022/03/13 06:19:26;;;;;;;;;;;;;;;1.80;48.81;92854.41;2040811;70;20056;-73
2022/03/13 06:21:52;;;;;;;;;;;;;;;1.93;48.29;92865.38;2040646;70;20052;-73
2022/03/13 06:24:18;;;;;;;;;;;;;;;1.78;48.57;92870.84;2041136;70;20051;-72
2022/03/13 06:26:44;;;;;;;;;;;;;;;1.73;48.51;92878.06;2041219;70;20047;-72
2022/03/13 06:29:11;;;;;;;;;;;;;;;1.84;48.63;92881.81;2040821;70;20103;-72
2022/03/13 06:31:36;;;;;;;;;;;;;;;1.86;48.00;92879.94;2041142;70;20044;-72
2022/03/13 06:34:02;;;;;;;;;;;;;;;1.97;48.13;92884.41;2041213;70;20091;-72
2022/03/13 06:36:27;;;;;;;;;;;;;;;1.78;49.39;92885.47;2041343;70;20043;-72
2022/03/13 06:38:55;;;;;;;;;;;;;;;1.88;47.73;92885.72;2040901;70;20047;-72
2022/03/13 06:41:23;;;;;;;;;;;;;;;1.73;49.29;92878.06;2040768;70;20162;-72
2022/03/13 06:43:48;;;;;;;;;;;;;;;1.52;50.56;92891.28;2043449;70;20075;-73
2022/03/13 06:46:14;;;;;;;;;;;;;;;1.69;50.00;92880.44;2043598;70;20098;-73
2022/03/13 06:48:41;;;;;;;;;;;;;;;1.65;50.58;92882.09;2041514;70;20040;-73
2022/03/13 06:51:08;;;;;;;;;;;;;;;1.83;49.10;92883.81;2041435;70;20052;-72
2022/03/13 06:53:36;;;;;;;;;;;;;;;1.76;49.96;92890.09;2043494;70;20123;-74
2022/03/13 06:56:03;;;;;;;;;;;;;;;1.85;49.08;92886.81;2041376;70;20075;-73
2022/03/13 06:58:28;;;;;;;;;;;;;;;1.75;48.97;92874.75;2041463;70;20048;-75
2022/03/13 07:00:54;;;;;;;;;;;;;;;1.85;49.25;92880.50;2041298;70;20122;-74
2022/03/13 07:03:19;;;;;;;;;;;;;;;1.87;49.77;92884.22;2043536;70;20044;-74
2022/03/13 07:05:45;;;;;;;;;;;;;;;1.94;48.88;92893.88;2041526;70;20056;-74
2022/03/13 07:08:10;;;;;;;;;;;;;;;1.77;50.68;92892.31;2042838;70;20531;-74
2022/03/13 07:10:36;;;;;;;;;;;;;;;1.79;50.90;92886.22;2041252;70;20048;-74
2022/03/13 07:13:02;;;;;;;;;;;;;;;2.05;48.73;92890.75;2040998;70;20057;-74
2022/03/13 07:15:30;;;;;;;;;;;;;;;2.02;48.98;92886.31;2041335;70;20060;-74
2022/03/13 07:17:56;;;;;;;;;;;;;;;2.05;48.67;92893.53;2041466;70;20040;-74
2022/03/13 07:20:21;;;;;;;;;;;;;;;2.11;48.32;92888.56;2041404;70;20051;-74
2022/03/13 07:22:47;;;;;;;;;;;;;;;2.22;48.24;92885.44;2041442;70;20054;-74
2022/03/13 07:25:14;;;;;;;;;;;;;;;2.16;48.26;92887.63;2041565;70;20051;-74
2022/03/13 07:27:39;;;;;;;;;;;;;;;2.19;48.13;92883.00;2041460;70;20108;-74
2022/03/13 07:30:06;;;;;;;;;;;;;;;2.25;47.96;92875.25;2041504;70;20113;-74
2022/03/13 07:32:32;;;;;;;;;;;;;;;2.41;47.83;92876.00;2041432;70;20058;-75
2022/03/13 07:34:58;;;;;;;;;;;;;;;2.46;47.20;92872.31;2041434;70;20044;-74
2022/03/13 07:37:24;;;;;;;;;;;;;;;2.28;48.16;92877.66;2041374;70;20516;-73
2022/03/13 07:39:49;;;;;;;;;;;;;;;2.43;45.71;92867.84;2040886;70;20067;-74
2022/03/13 07:42:16;;;;;;;;;;;;;;;2.49;45.36;92874.72;2041502;70;20094;-74
2022/03/13 07:44:42;;;;;;;;;;;;;;;2.61;44.84;92866.00;2041241;70;20052;-74
2022/03/13 07:47:07;;;;;;;;;;;;;;;2.83;45.65;92858.97;2041311;70;20043;-75
2022/03/13 07:49:33;;;;;;;;;;;;;;;2.77;45.11;92868.25;2043797;70;20094;-74
2022/03/13 07:51:58;;;;;;;;;;;;;;;2.61;45.55;92864.00;2040881;70;20051;-75
2022/03/13 07:54:25;;;;;;;;;;;;;;;2.77;45.11;92870.28;2041417;70;20567;-75
2022/03/13 07:56:51;;;;;;;;;;;;;;;2.88;45.61;92867.13;2043598;70;20070;-75
2022/03/13 07:59:16;;;;;;;;;;;;;;;3.39;46.37;92854.25;2041237;70;20424;-75
2022/03/13 08:01:42;;;;;;;;;;;;;;;3.85;45.94;92859.66;2041501;70;20087;-75
2022/03/13 08:04:09;;;;;;;;;;;;;;;4.04;44.72;92854.41;2041519;70;20054;-75
2022/03/13 08:06:35;;;;;;;;;;;;;;;5.46;44.33;92862.81;2041418;70;20497;-76
2022/03/13 08:09:02;;;;;;;;;;;;;;;5.21;42.40;92859.31;2041584;70;20520;-76
2022/03/13 08:11:27;;;;;;;;;;;;;;;5.49;42.41;92852.53;2041403;70;20143;-75
2022/03/13 08:13:53;;;;;;;;;;;;;;;5.94;41.88;92854.09;2041303;70;20135;-76
2022/03/13 08:16:19;;;;;;;;;;;;;;;6.05;42.82;92853.59;2041434;70;20405;-76
2022/03/13 08:18:46;;;;;;;;;;;;;;;6.41;40.21;92848.66;2041350;70;20131;-76
2022/03/13 08:21:12;;;;;;;;;;;;;;;6.53;40.60;92850.34;2041302;70;20071;-76
2022/03/13 08:23:39;;;;;;;;;;;;;;;7.26;41.40;92849.56;2041337;70;20496;-76
2022/03/13 08:26:05;;;;;;;;;;;;;;;7.61;39.68;92840.94;2041217;70;20048;-76
2022/03/13 08:28:32;;;;;;;;;;;;;;;8.24;37.20;92851.09;2041457;70;20051;-76
2022/03/13 08:30:58;;;;;;;;;;;;;;;8.90;36.14;92845.94;2041260;70;20079;-76
2022/03/13 08:33:23;;;;;;;;;;;;;;;8.78;36.98;92842.28;2041444;70;20501;-75
2022/03/13 08:35:49;;;;;;;;;;;;;;;8.40;36.60;92843.13;2041334;70;20048;-75
2022/03/13 08:38:15;;;;;;;;;;;;;;;9.82;33.11;92840.09;2041356;70;20043;-75
2022/03/13 08:40:41;;;;;;;;;;;;;;;9.45;35.31;92828.53;2040678;70;20166;-75
2022/03/13 08:43:06;;;;;;;;;;;;;;;9.79;34.95;92835.69;2041302;70;20051;-75
2022/03/13 08:45:31;;;;;;;;;;;;;;;9.72;34.65;92837.38;2041194;70;20052;-77
2022/03/13 08:47:57;;;;;;;;;;;;;;;10.79;35.20;92839.25;2041320;70;20462;-75
2022/03/13 08:50:24;;;;;;;;;;;;;;;10.54;34.20;92829.28;2041297;70;20154;-76
2022/03/13 08:52:49;;;;;;;;;;;;;;;10.55;34.50;92827.94;2041279;70;20044;-75
2022/03/13 08:55:18;;;;;;;;;;;;;;;12.51;30.02;92821.81;2041385;70;20152;-76
2022/03/13 08:57:44;;;;;;;;;;;;;;;13.17;28.21;92827.53;2041288;70;20051;-76
2022/03/13 09:00:11;;;;;;;;;;;;;;;13.14;27.99;92830.88;2041114;70;20080;-75
2022/03/13 09:02:37;;;;;;;;;;;;;;;12.04;29.59;92827.66;2040826;70;20044;-76
2022/03/13 09:05:03;;;;;;;;;;;;;;;13.03;29.13;92820.41;2041241;70;20183;-76
2022/03/13 09:07:29;;;;;;;;;;;;;;;12.46;29.36;92818.78;2040753;70;20155;-76
2022/03/13 09:09:55;;;;;;;;;;;;;;;13.82;26.57;92818.16;2043515;70;20087;-76
2022/03/13 09:12:20;;;;;;;;;;;;;;;13.86;26.92;92813.44;2041319;70;20106;-76
2022/03/13 09:14:46;;;;;;;;;;;;;;;13.60;26.12;92812.09;2043368;70;20476;-75
2022/03/13 09:17:12;;;;;;;;;;;;;;;13.10;28.76;92808.06;2040415;70;20476;-74
2022/03/13 09:19:38;;;;;;;;;;;;;;;14.09;26.66;92811.72;2041249;70;20088;-75
2022/03/13 09:22:04;;;;;;;;;;;;;;;14.47;25.88;92801.53;2041255;70;20531;-77
2022/03/13 09:24:35;;;;;;;;;;;;;;;14.77;25.44;92805.13;2041241;70;20067;-78
2022/03/13 09:27:00;;;;;;;;;;;;;;;14.87;24.99;92802.03;2041204;70;20052;-78
2022/03/13 09:29:25;;;;;;;;;;;;;;;15.25;25.87;92791.72;2041095;70;20051;-76
2022/03/13 09:31:51;;;;;;;;;;;;;;;15.40;23.88;92799.50;2041245;70;20492;-77
2022/03/13 09:34:17;;;;;;;;;;;;;;;15.71;24.84;92800.84;2041120;70;20152;-78
2022/03/13 09:36:43;;;;;;;;;;;;;;;14.86;23.87;92794.91;2041308;70;20137;-77
2022/03/13 09:39:09;;;;;;;;;;;;;;;14.41;24.33;92795.59;2041616;70;20140;-76
2022/03/13 09:41:37;;;;;;;;;;;;;;;14.52;25.27;92791.16;2041836;70;20047;-79
2022/03/13 09:44:05;;;;;;;;;;;;;;;15.55;24.65;92791.59;2041575;70;20131;-78
2022/03/13 09:46:30;;;;;;;;;;;;;;;16.61;23.57;92785.41;2041680;70;20147;-78
2022/03/13 09:48:57;;;;;;;;;;;;;;;16.27;22.68;92788.31;2041708;70;20048;-78
2022/03/13 09:51:25;;;;;;;;;;;;;;;15.17;22.49;92774.34;2041722;70;20119;-78
2022/03/13 09:53:51;;;;;;;;;;;;;;;15.39;23.62;92780.25;2041464;70;20086;-78
2022/03/13 09:56:17;;;;;;;;;;;;;;;16.82;21.94;92783.41;2041711;70;20051;-79
2022/03/13 09:58:45;;;;;;;;;;;;;;;17.80;21.25;92773.53;2041497;70;20054;-79
2022/03/13 10:01:12;;;;;;;;;;;;;;;16.85;20.74;92771.44;2041633;70;20063;-82
2022/03/13 10:03:38;;;;;;;;;;;;;;;16.43;20.89;92767.63;2041641;70;20046;-80
2022/03/13 10:06:03;;;;;;;;;;;;;;;17.71;20.37;92763.94;2041794;70;20044;-78
2022/03/13 10:08:30;;;;;;;;;;;;;;;17.13;19.93;92763.25;2041661;70;20107;-78
2022/03/13 10:10:56;;;;;;;;;;;;;;;16.77;21.27;92754.09;2041661;70;20147;-79
2022/03/13 10:13:45;;;;;;;;;;;;;;;17.87;20.82;92746.75;2041139;70;20142;-77
2022/03/13 10:16:31;;;;;;;;;;;;;;;18.58;19.44;92748.38;2041596;70;20075;-77
2022/03/13 10:19:11;;;;;;;;;;;;;;;18.03;17.73;92735.91;2041155;70;20054;-77
2022/03/13 10:21:38;;;;;;;;;;;;;;;18.01;18.65;92738.69;2041734;70;20154;-79
2022/03/13 10:24:10;;;;;;;;;;;;;;;17.60;18.45;92728.00;2041581;70;20055;-77
2022/03/13 10:26:37;;;;;;;;;;;;;;;18.14;17.61;92730.53;2043764;70;20477;-77
2022/03/13 10:29:03;;;;;;;;;;;;;;;18.50;18.45;92733.84;2041473;70;20047;-77
2022/03/13 10:31:28;;;;;;;;;;;;;;;19.97;17.26;92733.19;2041051;70;20083;-77
2022/03/13 10:33:56;;;;;;;;;;;;;;;19.62;18.01;92722.25;2041548;70;20044;-76
2022/03/13 10:36:31;;;;;;;;;;;;;;;19.07;17.43;92718.53;2041632;70;20054;-76
2022/03/13 10:38:57;;;;;;;;;;;;;;;19.82;16.37;92710.63;2043815;70;20415;-74
2022/03/13 10:41:44;;;;;;;;;;;;;;;18.23;16.92;92704.50;2041643;70;20056;-76
2022/03/13 10:44:21;;;;;;;;;;;;;;;19.23;18.46;92701.88;2043880;70;20139;-77
2022/03/13 10:46:58;;;;;;;;;;;;;;;18.80;17.89;92694.19;2043835;70;20063;-78
2022/03/13 10:49:31;;;;;;;;;;;;;;;18.88;16.91;92688.72;2041445;70;20044;-79
2022/03/13 10:51:57;;;;;;;;;;;;;;;20.10;15.81;92699.22;2041641;70;20059;-77
2022/03/13 10:54:26;;;;;;;;;;;;;;;19.33;16.77;92692.84;2041410;70;20051;-77
2022/03/13 10:57:08;;;;;;;;;;;;;;;20.38;16.60;92687.75;2041363;70;20132;-76
2022/03/13 10:59:34;;;;;;;;;;;;;;;22.01;16.22;92691.25;2041199;70;20055;-77
2022/03/13 11:02:14;;;;;;;;;;;;;;;21.26;15.77;92687.66;2041634;70;20115;-76
2022/03/13 11:04:50;;;;;;;;;;;;;;;21.67;15.75;92671.28;2041517;70;20059;-77
2022/03/13 11:07:16;;;;;;;;;;;;;;;23.30;14.54;92673.94;2041460;70;20512;-76
2022/03/13 11:09:41;;;;;;;;;;;;;;;23.28;14.24;92666.03;2041525;70;20496;-77
2022/03/13 11:12:15;;;;;;;;;;;;;;;24.79;13.60;92670.47;2041666;70;20151;-76
2022/03/13 11:14:42;;;;;;;;;;;;;;;24.95;12.90;92669.13;2041389;70;20051;-72
2022/03/13 11:17:09;;;;;;;;;;;;;;;26.04;13.28;92674.75;2041505;70;20052;-75
2022/03/13 11:19:37;;;;;;;;;;;;;;;26.41;12.49;92669.03;2041543;70;20048;-74
2022/03/13 11:22:03;;;;;;;;;;;;;;;28.59;11.44;92673.53;2041497;70;20052;-72
2022/03/13 11:24:28;;;;;;;;;;;;;;;30.21;11.29;92670.53;2041444;70;20423;-75
2022/03/13 11:26:54;;;;;;;;;;;;;;;27.68;11.56;92666.06;2040899;70;20054;-71
2022/03/13 11:29:39;;;;;;;;;;;;;;;29.49;11.37;92664.09;2039852;70;20055;-71
2022/03/13 11:32:24;;;;;;;;;;;;;;;28.88;10.20;92654.50;2041367;70;20078;-73
2022/03/13 11:35:16;;;;;;;;;;;;;;;32.23;10.48;92657.66;2041378;70;20047;-72
2022/03/13 11:37:42;;;;;;;;;;;;;;;28.75;10.07;92644.47;2040604;70;20191;-73
2022/03/13 11:40:09;;;;;;;;;;;;;;;28.38;10.93;92643.31;2041422;70;20044;-71
2022/03/13 11:42:47;;;;;;;;;;;;;;;28.71;10.19;92647.38;2040369;70;20500;-72
2022/03/13 11:45:34;;;;;;;;;;;;;;;26.96;11.44;92636.59;2041035;70;20158;-72
2022/03/13 11:48:05;;;;;;;;;;;;;;;29.86;10.73;92647.00;2038468;70;20497;-71
2022/03/13 11:50:48;;;;;;;;;;;;;;;30.37;9.49;92644.16;2037698;70;20063;-72
2022/03/13 11:53:16;;;;;;;;;;;;;;;29.45;10.11;92632.22;2037673;70;20524;-71
2022/03/13 11:56:00;;;;;;;;;;;;;;;30.96;10.37;92630.19;2037886;70;20051;-71
2022/03/13 11:58:41;;;;;;;;;;;;;;;32.21;8.95;92625.66;2037265;70;20481;-73
2022/03/13 12:01:23;;;;;;;;;;;;;;;32.05;9.18;92618.00;2037804;70;20222;-74
2022/03/13 12:04:01;;;;;;;;;;;;;;;32.20;10.09;92615.47;2037910;70;20048;-72
2022/03/13 12:06:42;;;;;;;;;;;;;;;34.25;8.72;92608.81;2037987;70;20055;-72
2022/03/13 12:09:07;;;;;;;;;;;;;;;33.42;9.29;92612.56;2037735;70;20095;-72
2022/03/13 12:11:45;;;;;;;;;;;;;;;31.55;8.40;92600.78;2037753;70;20083;-76
2022/03/13 12:14:12;;;;;;;;;;;;;;;31.77;8.75;92584.34;2037873;70;20052;-76
2022/03/13 12:16:38;;;;;;;;;;;;;;;31.04;9.17;92589.38;2037591;70;20060;-74
2022/03/13 12:19:07;;;;;;;;;;;;;;;32.10;7.98;92582.19;2037369;70;20062;-81
2022/03/13 12:21:33;;;;;;;;;;;;;;;32.52;8.66;92579.81;2037462;70;20051;-74
2022/03/13 12:24:08;;;;;;;;;;;;;;;34.18;8.27;92584.94;2037111;70;20059;-76
2022/03/13 12:26:36;;;;;;;;;;;;;;;33.33;8.17;92577.06;2037029;70;20048;-76
2022/03/13 12:29:01;;;;;;;;;;;;;;;32.95;8.23;92575.19;2036455;70;20095;-74
2022/03/13 12:31:29;;;;;;;;;;;;;;;32.89;9.28;92570.88;2036698;70;20056;-74
2022/03/13 12:34:00;;;;;;;;;;;;;;;35.52;8.61;92579.88;2037594;70;20054;-73
2022/03/13 12:36:33;;;;;;;;;;;;;;;33.89;8.05;92571.13;2037379;70;20048;-77
2022/03/13 12:38:59;;;;;;;;;;;;;;;33.33;8.03;92564.69;2036807;70;20044;-74
2022/03/13 12:41:26;;;;;;;;;;;;;;;33.98;7.96;92562.88;2037314;70;20092;-76
2022/03/13 12:43:54;;;;;;;;;;;;;;;32.98;8.51;92561.97;2039602;70;20151;-74
2022/03/13 12:46:23;;;;;;;;;;;;;;;33.28;8.08;92560.44;2037381;70;20084;-76
2022/03/13 12:48:52;;;;;;;;;;;;;;;32.83;8.83;92555.75;2036827;70;20121;-74
2022/03/13 12:51:38;;;;;;;;;;;;;;;33.59;7.97;92557.44;2039534;70;20071;-75
2022/03/13 12:54:10;;;;;;;;;;;;;;;33.47;7.90;92549.72;2037403;70;20151;-74
2022/03/13 12:56:42;;;;;;;;;;;;;;;33.63;8.15;92551.47;2036856;70;20060;-73
2022/03/13 12:59:07;;;;;;;;;;;;;;;33.09;8.22;92545.66;2037230;70;20048;-80